createdAt,value
2019-05-25T00:00:27.871Z,69.54
2019-05-25T00:02:59.863Z,69.73
2019-05-25T00:05:31.829Z,70.01
2019-05-25T00:08:03.823Z,69.40
2019-05-25T00:10:35.798Z,69.45
2019-05-25T00:13:07.839Z,69.64
2019-05-25T00:15:39.847Z,69.46
2019-05-25T00:18:11.855Z,69.52
2019-05-25T00:20:43.890Z,68.97
2019-05-25T00:23:15.826Z,69.14
2019-05-25T00:25:47.810Z,68.96
2019-05-25T00:28:19.782Z,69.77
2019-05-25T00:30:51.722Z,69.61
2019-05-25T00:33:23.733Z,69.60
2019-05-25T00:35:55.798Z,71.15
2019-05-25T00:38:27.742Z,71.15
2019-05-25T00:40:59.730Z,70.64
2019-05-25T00:43:31.702Z,71.03
2019-05-25T00:46:03.686Z,71.31
2019-05-25T00:48:35.643Z,71.16
2019-05-25T00:51:07.676Z,71.04
2019-05-25T00:53:39.669Z,70.34
2019-05-25T00:56:11.703Z,70.54
2019-05-25T00:58:43.677Z,71.23
2019-05-25T01:01:15.724Z,71.14
2019-05-25T01:03:47.675Z,71.44
2019-05-25T01:06:19.707Z,70.69
2019-05-25T01:08:51.713Z,71.26
2019-05-25T01:11:23.726Z,70.98
2019-05-25T01:13:55.699Z,70.88
2019-05-25T01:16:27.694Z,71.23
2019-05-25T01:18:59.685Z,71.29
2019-05-25T01:21:32.464Z,71.72
2019-05-25T01:24:04.472Z,71.98
2019-05-25T01:26:36.460Z,71.97
2019-05-25T01:29:08.408Z,71.53
2019-05-25T01:31:40.478Z,71.51
2019-05-25T01:34:12.462Z,71.64
2019-05-25T01:36:44.554Z,71.67
2019-05-25T01:39:16.526Z,71.89
2019-05-25T01:41:48.504Z,71.79
2019-05-25T01:44:20.483Z,71.55
2019-05-25T01:46:52.462Z,71.91
2019-05-25T01:49:24.448Z,72.39
2019-05-25T01:51:56.414Z,71.79
2019-05-25T01:54:28.374Z,71.96
2019-05-25T01:57:00.353Z,71.75
2019-05-25T01:59:32.348Z,71.48
2019-05-25T02:02:04.371Z,71.57
2019-05-25T02:04:36.335Z,71.73
2019-05-25T02:07:08.308Z,72.02
2019-05-25T02:09:40.321Z,72.00
2019-05-25T02:12:12.352Z,71.88
2019-05-25T02:14:44.324Z,71.86
2019-05-25T02:17:16.329Z,71.75
2019-05-25T02:19:48.425Z,72.14
2019-05-25T02:22:20.421Z,72.27
2019-05-25T02:24:52.407Z,72.13
2019-05-25T02:27:24.411Z,72.22
2019-05-25T02:29:56.380Z,72.47
2019-05-25T02:32:28.379Z,72.38
2019-05-25T02:35:00.369Z,72.54
2019-05-25T02:37:32.368Z,72.37
2019-05-25T02:40:04.494Z,72.83
2019-05-25T02:42:36.500Z,72.18
2019-05-25T02:45:09.232Z,72.86
2019-05-25T02:47:41.247Z,72.85
2019-05-25T02:50:13.226Z,73.14
2019-05-25T02:52:45.261Z,73.05
2019-05-25T02:55:32.503Z,72.82
2019-05-25T02:57:51.141Z,72.81
2019-05-25T03:00:31.059Z,72.92
2019-05-25T03:03:03.448Z,72.64
2019-05-25T03:05:35.438Z,72.04
2019-05-25T03:08:07.381Z,72.43
2019-05-25T03:10:39.489Z,72.47
2019-05-25T03:13:11.451Z,72.84
2019-05-25T03:15:43.460Z,73.24
2019-05-25T03:18:15.427Z,73.03
2019-05-25T03:20:47.400Z,72.64
2019-05-25T03:23:19.370Z,72.88
2019-05-25T03:25:51.443Z,73.05
2019-05-25T03:28:23.398Z,72.31
2019-05-25T03:30:55.375Z,72.71
2019-05-25T03:33:27.333Z,73.08
2019-05-25T03:35:59.349Z,73.10
2019-05-25T03:38:31.300Z,73.31
2019-05-25T03:41:03.305Z,73.37
2019-05-25T03:43:35.300Z,73.32
2019-05-25T03:46:07.356Z,73.29
2019-05-25T03:48:39.349Z,72.70
2019-05-25T03:51:11.336Z,72.53
2019-05-25T03:53:43.303Z,73.53
2019-05-25T03:56:15.301Z,73.55
2019-05-25T03:58:47.243Z,73.50
2019-05-25T04:01:19.252Z,73.49
2019-05-25T04:03:51.235Z,73.04
2019-05-25T04:06:23.314Z,72.68
2019-05-25T04:08:55.349Z,72.62
2019-05-25T04:11:27.368Z,71.87
2019-05-25T04:13:59.364Z,72.64
2019-05-25T04:16:31.406Z,72.73
2019-05-25T04:19:03.485Z,72.66
2019-05-25T04:21:35.494Z,72.86
2019-05-25T04:24:11.461Z,72.83
2019-05-25T04:26:43.481Z,71.90
2019-05-25T04:29:15.462Z,72.21
2019-05-25T04:31:47.441Z,72.67
2019-05-25T04:34:19.438Z,72.77
2019-05-25T04:36:51.659Z,72.82
2019-05-25T04:39:23.649Z,72.81
2019-05-25T04:41:55.616Z,72.19
2019-05-25T04:44:27.609Z,72.37
2019-05-25T04:46:59.618Z,72.43
2019-05-25T04:49:31.573Z,72.35
2019-05-25T04:52:03.551Z,72.19
2019-05-25T04:54:35.555Z,71.72
2019-05-25T04:57:07.629Z,71.77
2019-05-25T04:59:39.775Z,71.41
2019-05-25T05:02:11.781Z,71.33
2019-05-25T05:04:43.829Z,69.98
2019-05-25T05:07:15.829Z,69.69
2019-05-25T05:10:01.541Z,69.37
2019-05-25T05:12:21.675Z,69.32
2019-05-25T05:14:56.458Z,69.01
2019-05-25T05:17:27.821Z,68.48
2019-05-25T05:19:59.928Z,67.68
2019-05-25T05:22:31.931Z,65.42
2019-05-25T05:25:04.715Z,65.23
2019-05-25T05:27:36.714Z,64.91
2019-05-25T05:30:08.857Z,65.05
2019-05-25T05:32:40.830Z,65.09
2019-05-25T05:35:12.985Z,64.95
2019-05-25T05:37:45.375Z,64.70
2019-05-25T05:40:17.370Z,65.12
2019-05-25T05:42:50.240Z,65.50
2019-05-25T05:45:22.202Z,66.06
2019-05-25T05:47:54.646Z,65.79
2019-05-25T05:50:26.686Z,65.61
2019-05-25T05:53:01.171Z,65.54
2019-05-25T05:55:33.158Z,65.36
2019-05-25T05:58:05.251Z,65.26
2019-05-25T06:00:37.446Z,64.62
2019-05-25T06:03:09.439Z,64.39
2019-05-25T06:05:41.448Z,64.19
2019-05-25T06:08:13.441Z,63.93
2019-05-25T06:10:45.474Z,63.57
2019-05-25T06:13:17.455Z,63.02
2019-05-25T06:15:49.474Z,63.05
2019-05-25T06:18:21.444Z,62.84
2019-05-25T06:20:53.464Z,62.16
2019-05-25T06:23:25.448Z,62.11
2019-05-25T06:25:57.540Z,62.27
2019-05-25T06:28:29.584Z,61.74
2019-05-25T06:31:01.678Z,61.59
2019-05-25T06:33:33.690Z,61.72
2019-05-25T06:36:05.760Z,61.33
2019-05-25T06:38:37.743Z,60.90
2019-05-25T06:41:09.808Z,60.48
2019-05-25T06:43:41.871Z,59.62
2019-05-25T06:46:13.945Z,59.80
2019-05-25T06:48:45.931Z,59.49
2019-05-25T06:51:17.987Z,58.36
2019-05-25T06:53:49.990Z,58.35
2019-05-25T06:56:21.975Z,57.13
2019-05-25T06:58:53.975Z,55.26
2019-05-25T07:01:26.010Z,53.60
2019-05-25T07:03:57.964Z,52.86
2019-05-25T07:06:29.995Z,50.97
2019-05-25T07:09:01.983Z,48.78
2019-05-25T07:11:34.028Z,48.48
2019-05-25T07:14:06.063Z,46.63
2019-05-25T07:16:38.173Z,44.90
2019-05-25T07:19:10.277Z,44.80
2019-05-25T07:21:42.280Z,43.17
2019-05-25T07:24:14.275Z,41.90
2019-05-25T07:26:46.288Z,41.70
2019-05-25T07:29:18.292Z,41.42
2019-05-25T07:31:50.357Z,40.91
2019-05-25T07:34:22.292Z,39.62
2019-05-25T07:36:54.326Z,39.78
2019-05-25T07:39:26.320Z,38.71
2019-05-25T07:41:58.311Z,38.38
2019-05-25T07:44:30.340Z,37.68
2019-05-25T07:47:02.338Z,38.34
2019-05-25T07:49:34.318Z,38.27
2019-05-25T07:52:06.351Z,37.54
2019-05-25T07:54:38.323Z,37.30
2019-05-25T07:57:10.340Z,36.76
2019-05-25T07:59:42.310Z,36.54
2019-05-25T08:02:14.318Z,36.41
2019-05-25T08:04:46.315Z,36.08
2019-05-25T08:07:18.563Z,35.82
2019-05-25T08:09:50.570Z,35.07
2019-05-25T08:12:22.567Z,35.38
2019-05-25T08:14:56.435Z,36.77
2019-05-25T08:17:28.441Z,36.69
2019-05-25T08:20:00.460Z,37.38
2019-05-25T08:22:32.560Z,37.78
2019-05-25T08:25:04.954Z,37.82
2019-05-25T08:27:36.995Z,37.76
2019-05-25T08:30:09.024Z,38.25
2019-05-25T08:32:51.888Z,37.72
2019-05-25T08:35:29.218Z,38.24
2019-05-25T08:38:09.883Z,38.25
2019-05-25T08:40:41.890Z,38.42
2019-05-25T08:43:13.976Z,37.47
2019-05-25T08:45:46.046Z,37.47
2019-05-25T08:48:18.120Z,37.58
2019-05-25T08:50:50.087Z,37.95
2019-05-25T08:53:39.576Z,37.67
2019-05-25T08:55:56.133Z,37.89
2019-05-25T08:58:28.141Z,37.48
2019-05-25T09:01:00.110Z,37.46
2019-05-25T09:03:32.166Z,37.79
2019-05-25T09:06:04.140Z,37.44
2019-05-25T09:08:36.188Z,36.74
2019-05-25T09:11:08.162Z,37.00
2019-05-25T09:13:40.215Z,37.14
2019-05-25T09:16:12.246Z,36.68
2019-05-25T09:18:44.226Z,36.95
2019-05-25T09:21:16.237Z,36.94
2019-05-25T09:23:48.930Z,36.01
2019-05-25T09:26:21.068Z,34.87
2019-05-25T09:29:04.049Z,33.89
2019-05-25T09:31:27.153Z,34.65
2019-05-25T09:33:59.164Z,34.01
2019-05-25T09:36:31.165Z,34.61
2019-05-25T09:39:05.286Z,33.48
2019-05-25T09:41:37.406Z,32.55
2019-05-25T09:44:09.472Z,32.53
2019-05-25T09:46:41.469Z,32.38
2019-05-25T09:49:13.669Z,30.07
2019-05-25T09:51:48.490Z,30.47
2019-05-25T09:54:19.592Z,30.48
2019-05-25T09:56:51.649Z,30.78
2019-05-25T09:59:23.738Z,30.74
2019-05-25T10:01:55.743Z,30.57
2019-05-25T10:04:27.782Z,30.03
2019-05-25T10:06:59.801Z,30.06
2019-05-25T10:09:31.807Z,31.49
2019-05-25T10:12:03.934Z,31.68
2019-05-25T10:14:35.942Z,32.08
2019-05-25T10:17:08.049Z,31.71
2019-05-25T10:19:39.977Z,31.91
2019-05-25T10:22:12.000Z,33.51
2019-05-25T10:24:44.000Z,34.57
2019-05-25T10:27:16.041Z,35.49
2019-05-25T10:29:48.049Z,35.63
2019-05-25T10:32:20.078Z,35.11
2019-05-25T10:34:52.058Z,35.26
2019-05-25T10:37:24.078Z,35.45
2019-05-25T10:39:56.113Z,35.48
2019-05-25T10:42:28.157Z,35.43
2019-05-25T10:45:00.158Z,36.27
2019-05-25T10:47:32.543Z,36.11
2019-05-25T10:50:05.167Z,35.67
2019-05-25T10:52:37.197Z,35.39
2019-05-25T10:55:11.427Z,35.07
2019-05-25T10:57:43.499Z,34.45
2019-05-25T11:00:17.288Z,34.49
2019-05-25T11:02:49.347Z,35.37
2019-05-25T11:05:21.349Z,36.16
2019-05-25T11:07:53.356Z,36.86
2019-05-25T11:10:25.373Z,37.57
2019-05-25T11:12:57.386Z,39.52
2019-05-25T11:15:29.374Z,38.32
2019-05-25T11:18:01.453Z,37.79
2019-05-25T11:20:33.414Z,38.19
2019-05-25T11:23:05.459Z,38.33
2019-05-25T11:25:37.459Z,39.41
2019-05-25T11:28:09.481Z,39.81
2019-05-25T11:30:41.442Z,39.97
2019-05-25T11:33:13.476Z,41.06
2019-05-25T11:35:45.467Z,40.37
2019-05-25T11:38:17.493Z,40.85
2019-05-25T11:40:49.695Z,41.12
2019-05-25T11:43:21.784Z,41.18
2019-05-25T11:45:53.830Z,41.25
2019-05-25T11:48:25.842Z,41.90
2019-05-25T11:50:57.866Z,42.24
2019-05-25T11:53:29.865Z,42.78
2019-05-25T11:56:01.876Z,44.15
2019-05-25T11:58:46.578Z,44.56
2019-05-25T12:01:07.855Z,44.46
2019-05-25T12:03:39.840Z,44.44
2019-05-25T12:06:11.889Z,43.78
2019-05-25T12:08:43.897Z,43.19
2019-05-25T12:11:15.895Z,43.55
2019-05-25T12:13:47.921Z,43.43
2019-05-25T12:16:19.946Z,43.13
2019-05-25T12:18:51.947Z,44.33
2019-05-25T12:21:23.938Z,44.32
2019-05-25T12:23:55.931Z,43.36
2019-05-25T12:26:27.985Z,43.12
2019-05-25T12:28:59.997Z,43.23
2019-05-25T12:31:32.026Z,43.54
2019-05-25T12:34:04.161Z,44.11
2019-05-25T12:36:36.239Z,43.61
2019-05-25T12:39:08.262Z,43.10
2019-05-25T12:41:40.270Z,43.19
2019-05-25T12:44:12.283Z,43.11
2019-05-25T12:46:44.378Z,43.71
2019-05-25T12:49:16.416Z,43.83
2019-05-25T12:51:48.448Z,43.37
2019-05-25T12:54:20.431Z,43.04
2019-05-25T12:56:52.445Z,43.31
2019-05-25T12:59:24.486Z,43.35
2019-05-25T13:01:56.498Z,43.04
2019-05-25T13:04:28.481Z,42.42
2019-05-25T13:07:00.481Z,42.23
2019-05-25T13:09:32.509Z,41.14
2019-05-25T13:12:04.510Z,40.86
2019-05-25T13:14:36.488Z,40.93
2019-05-25T13:17:08.558Z,40.43
2019-05-25T13:19:41.408Z,40.83
2019-05-25T13:22:13.395Z,41.29
2019-05-25T13:24:45.454Z,41.44
2019-05-25T13:27:17.504Z,41.13
2019-05-25T13:29:49.515Z,40.37
2019-05-25T13:32:21.574Z,39.93
2019-05-25T13:34:53.600Z,39.83
2019-05-25T13:37:25.771Z,40.10
2019-05-25T13:39:57.776Z,40.42
2019-05-25T13:42:29.840Z,41.23
2019-05-25T13:45:01.886Z,41.19
2019-05-25T13:47:33.961Z,40.33
2019-05-25T13:50:06.681Z,40.16
2019-05-25T13:52:38.862Z,40.57
2019-05-25T13:55:11.099Z,41.01
2019-05-25T13:57:43.323Z,39.78
2019-05-25T14:00:15.339Z,39.70
2019-05-25T14:02:47.378Z,40.31
2019-05-25T14:05:19.420Z,39.52
2019-05-25T14:07:51.427Z,38.86
2019-05-25T14:10:23.465Z,40.31
2019-05-25T14:12:55.471Z,39.63
2019-05-25T14:15:27.478Z,40.08
2019-05-25T14:17:59.474Z,40.88
2019-05-25T14:20:31.551Z,41.98
2019-05-25T14:23:03.571Z,40.06
2019-05-25T14:25:35.690Z,41.31
2019-05-25T14:28:07.721Z,42.67
2019-05-25T14:30:39.797Z,44.13
2019-05-25T14:33:11.888Z,45.94
2019-05-25T14:35:44.039Z,50.01
2019-05-25T14:38:16.019Z,57.48
2019-05-25T14:40:48.171Z,63.77
2019-05-25T14:43:20.256Z,70.04
2019-05-25T14:45:53.401Z,76.12
2019-05-25T14:48:25.782Z,77.12
2019-05-25T14:50:57.849Z,79.43
2019-05-25T14:53:30.007Z,80.22
2019-05-25T14:56:02.033Z,82.20
2019-05-25T14:58:34.073Z,84.03
2019-05-25T15:01:06.147Z,86.55
2019-05-25T15:03:38.252Z,85.05
2019-05-25T15:06:10.311Z,87.62
2019-05-25T15:08:42.346Z,88.56
2019-05-25T15:11:14.419Z,90.21
2019-05-25T15:13:46.465Z,90.77
2019-05-25T15:16:18.564Z,90.63
2019-05-25T15:18:50.625Z,87.85
2019-05-25T15:21:22.757Z,84.97
2019-05-25T15:23:54.851Z,86.52
2019-05-25T15:26:26.867Z,86.97
2019-05-25T15:28:58.933Z,89.32
2019-05-25T15:31:31.023Z,88.53
2019-05-25T15:34:03.351Z,88.54
2019-05-25T15:36:35.769Z,87.21
2019-05-25T15:39:07.837Z,88.17
2019-05-25T15:41:39.923Z,87.64
2019-05-25T15:44:11.952Z,88.15
2019-05-25T15:46:44.111Z,89.27
2019-05-25T15:49:16.093Z,90.86
2019-05-25T15:51:48.140Z,91.55
2019-05-25T15:54:20.148Z,90.61
2019-05-25T15:56:52.191Z,90.39
2019-05-25T15:59:24.219Z,90.88
2019-05-25T16:01:56.284Z,91.25
2019-05-25T16:04:28.507Z,91.70
2019-05-25T16:07:00.537Z,91.25
2019-05-25T16:09:32.574Z,91.30
2019-05-25T16:12:04.711Z,91.85
2019-05-25T16:14:36.789Z,92.30
2019-05-25T16:17:08.822Z,92.77
2019-05-25T16:19:40.818Z,92.29
2019-05-25T16:22:12.913Z,92.33
2019-05-25T16:24:45.056Z,92.62
2019-05-25T16:27:17.332Z,92.80
2019-05-25T16:29:49.382Z,92.83
2019-05-25T16:32:21.467Z,92.29
2019-05-25T16:34:53.586Z,92.56
2019-05-25T16:37:25.748Z,92.54
2019-05-25T16:39:57.865Z,92.61
2019-05-25T16:42:29.931Z,92.66
2019-05-25T16:45:05.539Z,92.02
2019-05-25T16:47:35.924Z,92.16
2019-05-25T16:50:08.562Z,91.92
2019-05-25T16:52:40.911Z,91.92
2019-05-25T16:55:13.270Z,91.75
2019-05-25T16:57:45.305Z,89.67
2019-05-25T17:00:27.268Z,89.11
2019-05-25T17:02:59.697Z,89.04
2019-05-25T17:05:31.779Z,90.65
2019-05-25T17:08:03.863Z,90.81
2019-05-25T17:10:35.937Z,91.23
2019-05-25T17:13:08.000Z,91.37
2019-05-25T17:15:40.076Z,92.03
2019-05-25T17:18:12.109Z,91.55
2019-05-25T17:20:44.189Z,91.84
2019-05-25T17:23:16.188Z,92.08
2019-05-25T17:25:48.326Z,91.04
2019-05-25T17:28:20.472Z,91.01
2019-05-25T17:30:52.526Z,91.57
2019-05-25T17:33:44.531Z,92.23
2019-05-25T17:36:04.447Z,92.29
2019-05-25T17:38:36.482Z,92.09
2019-05-25T17:41:08.515Z,92.23
2019-05-25T17:43:40.569Z,92.61
2019-05-25T17:46:12.680Z,93.02
2019-05-25T17:48:44.741Z,92.80
2019-05-25T17:51:16.894Z,92.87
2019-05-25T17:53:48.943Z,93.07
2019-05-25T17:56:20.985Z,93.40
2019-05-25T17:58:53.020Z,93.47
2019-05-25T18:01:25.105Z,93.44
2019-05-25T18:04:06.711Z,93.42
2019-05-25T18:06:31.205Z,93.49
2019-05-25T18:09:05.910Z,93.10
2019-05-25T18:11:38.136Z,93.19
2019-05-25T18:14:10.200Z,93.37
2019-05-25T18:16:42.349Z,92.81
2019-05-25T18:19:14.384Z,93.01
2019-05-25T18:21:46.500Z,93.00
2019-05-25T18:24:18.564Z,93.00
2019-05-25T18:26:50.640Z,92.10
2019-05-25T18:29:23.872Z,92.58
2019-05-25T18:31:56.122Z,92.88
2019-05-25T18:34:28.222Z,92.67
2019-05-25T18:37:00.372Z,92.77
2019-05-25T18:39:32.417Z,93.11
2019-05-25T18:42:04.533Z,93.29
2019-05-25T18:44:36.565Z,93.25
2019-05-25T18:47:08.648Z,93.24
2019-05-25T18:49:40.773Z,93.37
2019-05-25T18:52:12.836Z,93.18
2019-05-25T18:54:44.877Z,93.21
2019-05-25T18:57:16.935Z,93.40
2019-05-25T18:59:49.009Z,93.46
2019-05-25T19:02:21.033Z,93.41
2019-05-25T19:04:59.507Z,93.46
2019-05-25T19:07:27.122Z,93.48
2019-05-25T19:09:59.160Z,93.41
2019-05-25T19:12:31.235Z,93.61
2019-05-25T19:15:05.263Z,93.65
2019-05-25T19:17:37.340Z,93.50
2019-05-25T19:20:09.631Z,93.38
2019-05-25T19:22:41.752Z,93.43
2019-05-25T19:25:14.952Z,93.36
2019-05-25T19:27:47.140Z,93.64
2019-05-25T19:30:19.523Z,93.71
2019-05-25T19:32:51.607Z,93.71
2019-05-25T19:35:23.748Z,93.74
2019-05-25T19:37:55.865Z,93.87
2019-05-25T19:40:28.069Z,93.81
2019-05-25T19:43:00.051Z,93.80
2019-05-25T19:45:33.006Z,93.74
2019-05-25T19:48:05.259Z,93.59
2019-05-25T19:50:37.342Z,93.45
2019-05-25T19:53:11.524Z,93.54
2019-05-25T19:55:43.592Z,93.71
2019-05-25T19:58:15.668Z,93.72
2019-05-25T20:00:47.695Z,93.67
2019-05-25T20:03:19.727Z,93.40
2019-05-25T20:05:51.821Z,93.52
2019-05-25T20:08:23.853Z,93.61
2019-05-25T20:10:56.026Z,93.67
2019-05-25T20:13:28.083Z,93.65
2019-05-25T20:16:00.218Z,93.76
2019-05-25T20:18:32.308Z,93.80
2019-05-25T20:21:04.449Z,93.40
2019-05-25T20:23:36.672Z,93.53
2019-05-25T20:26:09.194Z,93.73
2019-05-25T20:28:41.263Z,93.81
2019-05-25T20:31:13.393Z,93.56
2019-05-25T20:33:45.481Z,93.58
2019-05-25T20:36:17.707Z,93.42
2019-05-25T20:38:49.827Z,93.40
2019-05-25T20:41:21.990Z,93.31
2019-05-25T20:43:54.144Z,93.51
2019-05-25T20:46:26.273Z,93.25
2019-05-25T20:48:58.380Z,93.36
2019-05-25T20:51:30.449Z,93.16
2019-05-25T20:54:02.527Z,93.06
2019-05-25T20:56:34.617Z,93.23
2019-05-25T20:59:06.618Z,93.16
2019-05-25T21:01:38.808Z,92.74
2019-05-25T21:04:10.952Z,92.87
2019-05-25T21:06:43.029Z,93.15
2019-05-25T21:09:15.079Z,93.15
2019-05-25T21:11:47.297Z,93.19
2019-05-25T21:14:19.399Z,93.29
2019-05-25T21:16:51.457Z,93.34
2019-05-25T21:19:23.534Z,93.25
2019-05-25T21:21:55.620Z,93.33
2019-05-25T21:24:27.793Z,93.53
2019-05-25T21:26:59.830Z,93.51
2019-05-25T21:29:31.899Z,92.59
2019-05-25T21:32:03.977Z,92.84
2019-05-25T21:34:36.133Z,92.91
2019-05-25T21:37:08.178Z,93.03
2019-05-25T21:39:40.284Z,93.04
2019-05-25T21:42:12.339Z,92.94
2019-05-25T21:44:44.403Z,93.20
2019-05-25T21:47:16.542Z,93.43
2019-05-25T21:49:48.643Z,93.14
2019-05-25T21:52:20.749Z,93.22
2019-05-25T21:54:52.769Z,93.37
2019-05-25T21:57:25.896Z,93.24
2019-05-25T21:59:58.142Z,93.36
2019-05-25T22:02:30.155Z,92.81
2019-05-25T22:05:02.206Z,92.84
2019-05-25T22:07:34.447Z,92.91
2019-05-25T22:10:06.966Z,92.78
2019-05-25T22:12:40.433Z,92.93
2019-05-25T22:15:13.340Z,93.39
2019-05-25T22:17:45.340Z,93.57
2019-05-25T22:20:17.948Z,93.33
2019-05-25T22:22:49.959Z,92.94
2019-05-25T22:25:22.033Z,93.08
2019-05-25T22:27:54.063Z,92.65
2019-05-25T22:30:26.165Z,93.03
2019-05-25T22:32:58.124Z,93.04
2019-05-25T22:35:30.136Z,93.18
2019-05-25T22:38:02.199Z,93.40
2019-05-25T22:40:34.203Z,92.79
2019-05-25T22:43:06.181Z,93.16
2019-05-25T22:45:38.231Z,93.29
2019-05-25T22:48:10.240Z,93.19
2019-05-25T22:50:42.417Z,92.88
2019-05-25T22:53:14.361Z,92.75
2019-05-25T22:55:46.369Z,93.11
2019-05-25T22:58:18.328Z,93.16
2019-05-25T23:00:50.310Z,93.17
2019-05-25T23:03:22.274Z,93.28
2019-05-25T23:05:54.339Z,93.52
2019-05-25T23:08:26.347Z,93.05
2019-05-25T23:10:58.457Z,93.25
2019-05-25T23:13:30.564Z,93.07
2019-05-25T23:16:02.603Z,93.10
2019-05-25T23:18:34.649Z,93.47
2019-05-25T23:21:06.656Z,93.40
2019-05-25T23:23:38.626Z,93.35
2019-05-25T23:26:10.624Z,93.44
2019-05-25T23:28:42.653Z,93.23
2019-05-25T23:31:14.682Z,93.29
2019-05-25T23:33:46.679Z,93.46
2019-05-25T23:36:18.659Z,93.29
2019-05-25T23:38:50.682Z,93.30
2019-05-25T23:41:22.737Z,93.24
2019-05-25T23:43:54.722Z,93.11
2019-05-25T23:46:26.702Z,93.04
2019-05-25T23:48:58.707Z,92.96
2019-05-25T23:51:30.677Z,93.06
2019-05-25T23:54:02.670Z,92.98
2019-05-25T23:56:34.668Z,92.38
2019-05-25T23:59:06.661Z,92.78
